Ens, Netherlands
Current Conditions -  °F | °C
As of 11:55 PM on Tuesday 21 Oct 2014 (Local Time) from EHDL Reporting Station
Rain Showers Rain Showers  
Wind Chill: 40°   Ceiling: 3000
Heat Index: 46°   Visibility: 6mi
Dew Point: 43°   Wind: 15mph
Humidity: 87%   Direction: 280°W
Pressure: 29.74"   Gusts: NA
Location:  52.64°N, 5.83°E
Report Text: EHDL 212155Z AUTO 28013KT 9999 SHRA FEW014 BKN030 BKN034 08/06 Q1007 BLU
Loading
Personal Weather Stations






























Interactive Weather Map
Tropical Storm Tracking
New forecast layout! Learn more

10-Day Weather Forecast

Advertisements
Track Severe Weather on mobile